Pays
Station

 

Conditions  météo  pour  Jijel Achouat  -  Algérie    Algérie

  
18 °C
    
 
 

METAR pour Jijel Achouat :

DAAV 260100Z 34002KT 8000 FEW020 FEW026CB SCT033 18/16 Q1012 RETS

 

Voici le bulletin pour Jijel Achouat - Algérie.
 
Le bulletin a été fait il y a 52 minutes, à 01:00 UTC .
Le vent soufflait à la vitesse de 1.0 mètres par seconde de Nord/Nord-ouest (340°).
 
La température était de 18 °C, avec un point de rosée à 16 °C.
La pression atmosphérique était de 1012 hPa.
L'humidité relative était de 88.1%.
 
Il y avait 1 à 2/8ème de nébulosité à une hauteur de 610 mètres, 1 à 2/8ème cumulonimbus de nébulosité à une hauteur de 792 mètres et 3 à 4/8ème de nébulosité à une hauteur de 1006 mètres.
 
La visibilité globale était de 8.0 kilomètres.
 

 
 
 

Pays :   A   B   C   D   E   F   G   H   I   J   K   L   M   N   O   P   Q   R   S   T   U   V   W   Y   Z

 

Partenaires :  Info Météo avec Met'info
Météo Marine avec MeteoMarine.net
Infos Site  |  Infos Légales  |  Crédits  |  Confidentialité
Contactez-nous  |  Ajouter aux favoris
© 2013-2018 METAR - Tous droits réservés